sensor_id;sensor_type;location;lat;lon;timestamp;P1;durP1;ratioP1;P2;durP2;ratioP2
13855;SDS011;6998;53.608;9.958;2023-02-13T00:02:12;17.83;;;14.07;;
13855;SDS011;6998;53.608;9.958;2023-02-13T00:04:39;21.55;;;15.18;;
13855;SDS011;6998;53.608;9.958;2023-02-13T00:07:06;25.10;;;16.55;;
13855;SDS011;6998;53.608;9.958;2023-02-13T00:09:34;23.47;;;16.37;;
13855;SDS011;6998;53.608;9.958;2023-02-13T00:12:01;20.73;;;16.17;;
13855;SDS011;6998;53.608;9.958;2023-02-13T00:14:28;21.47;;;15.10;;
13855;SDS011;6998;53.608;9.958;2023-02-13T00:16:55;22.57;;;17.00;;
13855;SDS011;6998;53.608;9.958;2023-02-13T00:19:23;24.10;;;16.20;;
13855;SDS011;6998;53.608;9.958;2023-02-13T00:21:50;22.40;;;16.27;;
13855;SDS011;6998;53.608;9.958;2023-02-13T00:24:17;24.00;;;18.10;;
13855;SDS011;6998;53.608;9.958;2023-02-13T00:26:45;23.53;;;17.37;;
13855;SDS011;6998;53.608;9.958;2023-02-13T00:29:12;21.77;;;16.70;;
13855;SDS011;6998;53.608;9.958;2023-02-13T00:31:39;24.53;;;17.57;;
13855;SDS011;6998;53.608;9.958;2023-02-13T00:34:15;21.50;;;16.73;;
13855;SDS011;6998;53.608;9.958;2023-02-13T00:36:43;22.92;;;17.55;;
13855;SDS011;6998;53.608;9.958;2023-02-13T00:39:11;22.50;;;17.02;;
13855;SDS011;6998;53.608;9.958;2023-02-13T00:41:38;24.63;;;17.63;;
13855;SDS011;6998;53.608;9.958;2023-02-13T00:44:05;22.87;;;17.30;;
13855;SDS011;6998;53.608;9.958;2023-02-13T00:46:34;21.83;;;16.60;;
13855;SDS011;6998;53.608;9.958;2023-02-13T00:49:05;24.13;;;17.53;;
13855;SDS011;6998;53.608;9.958;2023-02-13T00:51:38;24.47;;;16.80;;
13855;SDS011;6998;53.608;9.958;2023-02-13T00:54:06;20.63;;;16.00;;
13855;SDS011;6998;53.608;9.958;2023-02-13T00:56:33;21.03;;;16.63;;
13855;SDS011;6998;53.608;9.958;2023-02-13T00:59:00;25.17;;;18.13;;
13855;SDS011;6998;53.608;9.958;2023-02-13T01:01:28;22.40;;;16.97;;
13855;SDS011;6998;53.608;9.958;2023-02-13T01:03:54;23.23;;;17.67;;
13855;SDS011;6998;53.608;9.958;2023-02-13T01:06:21;23.23;;;17.87;;
13855;SDS011;6998;53.608;9.958;2023-02-13T01:08:51;23.13;;;16.93;;
13855;SDS011;6998;53.608;9.958;2023-02-13T01:11:19;22.20;;;17.43;;
13855;SDS011;6998;53.608;9.958;2023-02-13T01:13:46;20.53;;;16.77;;
13855;SDS011;6998;53.608;9.958;2023-02-13T01:16:14;23.77;;;17.00;;
13855;SDS011;6998;53.608;9.958;2023-02-13T01:18:41;25.00;;;17.87;;
13855;SDS011;6998;53.608;9.958;2023-02-13T01:21:13;22.70;;;17.27;;
13855;SDS011;6998;53.608;9.958;2023-02-13T01:23:56;21.40;;;17.23;;
13855;SDS011;6998;53.608;9.958;2023-02-13T01:26:30;23.37;;;17.13;;
13855;SDS011;6998;53.608;9.958;2023-02-13T01:28:57;24.63;;;18.13;;
13855;SDS011;6998;53.608;9.958;2023-02-13T01:31:25;21.60;;;17.10;;
13855;SDS011;6998;53.608;9.958;2023-02-13T01:33:54;22.37;;;16.97;;
13855;SDS011;6998;53.608;9.958;2023-02-13T01:36:22;25.30;;;19.13;;
13855;SDS011;6998;53.608;9.958;2023-02-13T01:38:51;30.27;;;19.33;;
13855;SDS011;6998;53.608;9.958;2023-02-13T01:41:19;23.90;;;18.43;;
13855;SDS011;6998;53.608;9.958;2023-02-13T01:43:51;23.90;;;18.50;;
13855;SDS011;6998;53.608;9.958;2023-02-13T01:46:25;22.47;;;17.83;;
13855;SDS011;6998;53.608;9.958;2023-02-13T01:48:57;23.77;;;17.23;;
13855;SDS011;6998;53.608;9.958;2023-02-13T01:51:29;24.97;;;17.80;;
13855;SDS011;6998;53.608;9.958;2023-02-13T01:53:59;23.33;;;17.90;;
13855;SDS011;6998;53.608;9.958;2023-02-13T01:56:31;24.03;;;18.13;;
13855;SDS011;6998;53.608;9.958;2023-02-13T01:59:06;22.80;;;17.67;;
13855;SDS011;6998;53.608;9.958;2023-02-13T02:01:38;25.40;;;17.43;;
13855;SDS011;6998;53.608;9.958;2023-02-13T02:04:08;21.13;;;16.50;;
13855;SDS011;6998;53.608;9.958;2023-02-13T02:06:40;19.80;;;15.70;;
13855;SDS011;6998;53.608;9.958;2023-02-13T02:09:12;22.83;;;17.47;;
13855;SDS011;6998;53.608;9.958;2023-02-13T02:11:46;21.07;;;15.63;;
13855;SDS011;6998;53.608;9.958;2023-02-13T02:14:23;24.73;;;17.35;;
13855;SDS011;6998;53.608;9.958;2023-02-13T02:16:51;21.80;;;16.53;;
13855;SDS011;6998;53.608;9.958;2023-02-13T02:19:21;23.43;;;16.83;;
13855;SDS011;6998;53.608;9.958;2023-02-13T02:28:25;21.83;;;16.67;;
13855;SDS011;6998;53.608;9.958;2023-02-13T02:34:04;21.95;;;16.30;;
13855;SDS011;6998;53.608;9.958;2023-02-13T02:36:46;23.13;;;17.73;;
13855;SDS011;6998;53.608;9.958;2023-02-13T02:39:38;19.20;;;16.40;;
13855;SDS011;6998;53.608;9.958;2023-02-13T02:42:17;22.17;;;16.83;;
13855;SDS011;6998;53.608;9.958;2023-02-13T02:44:53;20.67;;;16.40;;
13855;SDS011;6998;53.608;9.958;2023-02-13T02:47:26;19.60;;;15.57;;
13855;SDS011;6998;53.608;9.958;2023-02-13T02:50:23;22.70;;;17.13;;
13855;SDS011;6998;53.608;9.958;2023-02-13T02:53:03;20.03;;;16.13;;
13855;SDS011;6998;53.608;9.958;2023-02-13T02:55:36;18.93;;;15.27;;
13855;SDS011;6998;53.608;9.958;2023-02-13T02:58:08;21.17;;;16.33;;
13855;SDS011;6998;53.608;9.958;2023-02-13T03:00:58;20.83;;;16.43;;
13855;SDS011;6998;53.608;9.958;2023-02-13T03:03:46;22.10;;;16.23;;
13855;SDS011;6998;53.608;9.958;2023-02-13T03:06:47;19.90;;;15.60;;
13855;SDS011;6998;53.608;9.958;2023-02-13T03:09:25;20.00;;;15.60;;
13855;SDS011;6998;53.608;9.958;2023-02-13T03:12:16;16.63;;;14.30;;
13855;SDS011;6998;53.608;9.958;2023-02-13T03:15:08;17.43;;;15.30;;
13855;SDS011;6998;53.608;9.958;2023-02-13T03:17:55;19.30;;;14.67;;
13855;SDS011;6998;53.608;9.958;2023-02-13T03:20:43;17.77;;;14.53;;
13855;SDS011;6998;53.608;9.958;2023-02-13T03:23:37;20.03;;;15.37;;
13855;SDS011;6998;53.608;9.958;2023-02-13T03:26:20;19.53;;;14.83;;
13855;SDS011;6998;53.608;9.958;2023-02-13T03:29:10;21.33;;;15.37;;
13855;SDS011;6998;53.608;9.958;2023-02-13T03:32:18;17.40;;;13.87;;
13855;SDS011;6998;53.608;9.958;2023-02-13T03:34:53;17.70;;;14.10;;
13855;SDS011;6998;53.608;9.958;2023-02-13T03:37:46;19.33;;;14.47;;
13855;SDS011;6998;53.608;9.958;2023-02-13T03:40:32;17.50;;;13.90;;
13855;SDS011;6998;53.608;9.958;2023-02-13T03:43:23;16.10;;;12.67;;
13855;SDS011;6998;53.608;9.958;2023-02-13T03:45:54;20.10;;;14.83;;
13855;SDS011;6998;53.608;9.958;2023-02-13T03:48:23;18.13;;;14.47;;
13855;SDS011;6998;53.608;9.958;2023-02-13T03:51:11;17.13;;;14.10;;
13855;SDS011;6998;53.608;9.958;2023-02-13T03:53:41;19.20;;;14.40;;
13855;SDS011;6998;53.608;9.958;2023-02-13T03:56:14;17.20;;;14.17;;
13855;SDS011;6998;53.608;9.958;2023-02-13T03:59:02;17.20;;;13.90;;
13855;SDS011;6998;53.608;9.958;2023-02-13T04:01:43;19.83;;;14.50;;
13855;SDS011;6998;53.608;9.958;2023-02-13T04:04:18;18.27;;;14.43;;
13855;SDS011;6998;53.608;9.958;2023-02-13T04:06:51;18.57;;;14.73;;
13855;SDS011;6998;53.608;9.958;2023-02-13T04:09:28;17.37;;;13.83;;
13855;SDS011;6998;53.608;9.958;2023-02-13T04:12:00;16.63;;;13.50;;
13855;SDS011;6998;53.608;9.958;2023-02-13T04:14:35;16.77;;;13.60;;
13855;SDS011;6998;53.608;9.958;2023-02-13T04:17:08;18.30;;;13.77;;
13855;SDS011;6998;53.608;9.958;2023-02-13T04:19:39;19.77;;;13.93;;
13855;SDS011;6998;53.608;9.958;2023-02-13T04:22:12;15.80;;;13.27;;
13855;SDS011;6998;53.608;9.958;2023-02-13T04:24:39;19.77;;;13.57;;
13855;SDS011;6998;53.608;9.958;2023-02-13T04:27:08;20.20;;;14.27;;
13855;SDS011;6998;53.608;9.958;2023-02-13T04:29:40;18.65;;;14.65;;
13855;SDS011;6998;53.608;9.958;2023-02-13T04:32:09;17.90;;;13.40;;
13855;SDS011;6998;53.608;9.958;2023-02-13T04:34:39;18.60;;;13.70;;
13855;SDS011;6998;53.608;9.958;2023-02-13T04:37:07;17.00;;;13.83;;
13855;SDS011;6998;53.608;9.958;2023-02-13T04:39:39;20.33;;;14.67;;
13855;SDS011;6998;53.608;9.958;2023-02-13T04:42:08;17.03;;;13.43;;
13855;SDS011;6998;53.608;9.958;2023-02-13T04:44:35;18.17;;;13.30;;
13855;SDS011;6998;53.608;9.958;2023-02-13T04:47:02;14.90;;;13.17;;
13855;SDS011;6998;53.608;9.958;2023-02-13T04:49:31;15.97;;;13.30;;
13855;SDS011;6998;53.608;9.958;2023-02-13T04:51:58;17.53;;;14.07;;
13855;SDS011;6998;53.608;9.958;2023-02-13T04:54:28;17.87;;;13.87;;
13855;SDS011;6998;53.608;9.958;2023-02-13T04:57:00;17.70;;;14.57;;
13855;SDS011;6998;53.608;9.958;2023-02-13T04:59:29;17.40;;;13.63;;
13855;SDS011;6998;53.608;9.958;2023-02-13T05:01:57;19.23;;;14.47;;
13855;SDS011;6998;53.608;9.958;2023-02-13T05:04:24;15.07;;;12.37;;
13855;SDS011;6998;53.608;9.958;2023-02-13T05:06:52;16.50;;;13.93;;
13855;SDS011;6998;53.608;9.958;2023-02-13T05:09:20;18.53;;;13.03;;
13855;SDS011;6998;53.608;9.958;2023-02-13T05:11:49;15.03;;;12.23;;
13855;SDS011;6998;53.608;9.958;2023-02-13T05:14:19;16.27;;;13.70;;
13855;SDS011;6998;53.608;9.958;2023-02-13T05:16:48;19.73;;;15.17;;
13855;SDS011;6998;53.608;9.958;2023-02-13T05:19:15;17.77;;;13.77;;
13855;SDS011;6998;53.608;9.958;2023-02-13T05:21:44;19.03;;;14.30;;
13855;SDS011;6998;53.608;9.958;2023-02-13T05:24:29;17.97;;;14.20;;
13855;SDS011;6998;53.608;9.958;2023-02-13T05:26:56;17.40;;;13.77;;
13855;SDS011;6998;53.608;9.958;2023-02-13T05:29:23;17.43;;;13.47;;
13855;SDS011;6998;53.608;9.958;2023-02-13T05:31:52;16.73;;;12.82;;
13855;SDS011;6998;53.608;9.958;2023-02-13T05:34:21;14.30;;;11.97;;
13855;SDS011;6998;53.608;9.958;2023-02-13T05:36:50;16.20;;;13.23;;
13855;SDS011;6998;53.608;9.958;2023-02-13T05:39:18;16.80;;;13.57;;
13855;SDS011;6998;53.608;9.958;2023-02-13T05:41:45;21.70;;;15.37;;
13855;SDS011;6998;53.608;9.958;2023-02-13T05:44:13;19.97;;;15.13;;
13855;SDS011;6998;53.608;9.958;2023-02-13T05:46:41;17.93;;;13.47;;
13855;SDS011;6998;53.608;9.958;2023-02-13T05:49:12;19.13;;;14.77;;
13855;SDS011;6998;53.608;9.958;2023-02-13T05:51:40;22.23;;;16.70;;
13855;SDS011;6998;53.608;9.958;2023-02-13T05:54:07;18.90;;;15.27;;
13855;SDS011;6998;53.608;9.958;2023-02-13T05:56:34;18.73;;;14.73;;
13855;SDS011;6998;53.608;9.958;2023-02-13T05:59:16;16.20;;;13.23;;
13855;SDS011;6998;53.608;9.958;2023-02-13T06:07:08;16.87;;;13.13;;
13855;SDS011;6998;53.608;9.958;2023-02-13T06:09:35;20.37;;;15.77;;
13855;SDS011;6998;53.608;9.958;2023-02-13T06:12:03;20.40;;;15.47;;
13855;SDS011;6998;53.608;9.958;2023-02-13T06:14:30;21.07;;;16.50;;
13855;SDS011;6998;53.608;9.958;2023-02-13T06:16:59;21.50;;;16.07;;
13855;SDS011;6998;53.608;9.958;2023-02-13T06:19:26;20.50;;;16.10;;
13855;SDS011;6998;53.608;9.958;2023-02-13T06:21:52;19.97;;;15.57;;
13855;SDS011;6998;53.608;9.958;2023-02-13T06:24:21;20.17;;;15.90;;
13855;SDS011;6998;53.608;9.958;2023-02-13T06:26:54;19.73;;;15.70;;
13855;SDS011;6998;53.608;9.958;2023-02-13T06:29:21;21.43;;;16.67;;
13855;SDS011;6998;53.608;9.958;2023-02-13T06:31:51;20.43;;;16.20;;
13855;SDS011;6998;53.608;9.958;2023-02-13T06:34:29;17.67;;;14.43;;
13855;SDS011;6998;53.608;9.958;2023-02-13T06:36:57;16.57;;;13.87;;
13855;SDS011;6998;53.608;9.958;2023-02-13T06:39:26;20.20;;;15.60;;
13855;SDS011;6998;53.608;9.958;2023-02-13T06:41:53;19.43;;;14.53;;
13855;SDS011;6998;53.608;9.958;2023-02-13T06:44:20;18.07;;;13.83;;
13855;SDS011;6998;53.608;9.958;2023-02-13T06:46:47;18.93;;;15.47;;
13855;SDS011;6998;53.608;9.958;2023-02-13T06:49:15;17.40;;;13.80;;
13855;SDS011;6998;53.608;9.958;2023-02-13T06:51:41;18.33;;;15.00;;
13855;SDS011;6998;53.608;9.958;2023-02-13T06:54:08;19.07;;;16.00;;
13855;SDS011;6998;53.608;9.958;2023-02-13T06:56:40;15.73;;;13.50;;
13855;SDS011;6998;53.608;9.958;2023-02-13T06:59:07;18.70;;;15.23;;
13855;SDS011;6998;53.608;9.958;2023-02-13T07:01:37;19.80;;;15.33;;
13855;SDS011;6998;53.608;9.958;2023-02-13T07:04:06;16.97;;;14.93;;
13855;SDS011;6998;53.608;9.958;2023-02-13T07:06:33;17.80;;;14.97;;
13855;SDS011;6998;53.608;9.958;2023-02-13T07:09:00;15.80;;;13.73;;
13855;SDS011;6998;53.608;9.958;2023-02-13T07:11:27;20.50;;;15.10;;
13855;SDS011;6998;53.608;9.958;2023-02-13T07:13:56;17.20;;;14.23;;
13855;SDS011;6998;53.608;9.958;2023-02-13T07:16:23;19.17;;;15.23;;
13855;SDS011;6998;53.608;9.958;2023-02-13T07:18:50;20.07;;;15.13;;
13855;SDS011;6998;53.608;9.958;2023-02-13T07:21:16;18.07;;;14.90;;
13855;SDS011;6998;53.608;9.958;2023-02-13T07:23:43;19.43;;;15.30;;
13855;SDS011;6998;53.608;9.958;2023-02-13T07:26:10;20.33;;;15.43;;
13855;SDS011;6998;53.608;9.958;2023-02-13T07:28:38;20.03;;;14.67;;
13855;SDS011;6998;53.608;9.958;2023-02-13T07:31:06;17.90;;;15.20;;
13855;SDS011;6998;53.608;9.958;2023-02-13T07:33:34;19.63;;;16.30;;
13855;SDS011;6998;53.608;9.958;2023-02-13T07:36:01;18.80;;;15.47;;
13855;SDS011;6998;53.608;9.958;2023-02-13T07:38:30;20.27;;;15.67;;
13855;SDS011;6998;53.608;9.958;2023-02-13T07:40:58;18.83;;;15.60;;
13855;SDS011;6998;53.608;9.958;2023-02-13T07:43:25;21.20;;;16.27;;
13855;SDS011;6998;53.608;9.958;2023-02-13T07:45:52;20.23;;;15.37;;
13855;SDS011;6998;53.608;9.958;2023-02-13T07:48:21;20.63;;;15.50;;
13855;SDS011;6998;53.608;9.958;2023-02-13T07:50:51;19.47;;;16.17;;
13855;SDS011;6998;53.608;9.958;2023-02-13T07:53:18;21.83;;;17.40;;
13855;SDS011;6998;53.608;9.958;2023-02-13T07:55:46;20.50;;;16.53;;
13855;SDS011;6998;53.608;9.958;2023-02-13T07:58:13;23.17;;;17.03;;
13855;SDS011;6998;53.608;9.958;2023-02-13T08:00:40;20.53;;;16.30;;
13855;SDS011;6998;53.608;9.958;2023-02-13T08:03:08;21.03;;;16.23;;
13855;SDS011;6998;53.608;9.958;2023-02-13T08:05:36;18.40;;;14.30;;
13855;SDS011;6998;53.608;9.958;2023-02-13T08:08:04;21.20;;;16.10;;
13855;SDS011;6998;53.608;9.958;2023-02-13T08:10:32;19.77;;;16.03;;
13855;SDS011;6998;53.608;9.958;2023-02-13T08:13:18;20.30;;;16.00;;
13855;SDS011;6998;53.608;9.958;2023-02-13T08:15:44;19.70;;;16.07;;
13855;SDS011;6998;53.608;9.958;2023-02-13T08:18:12;20.47;;;16.33;;
13855;SDS011;6998;53.608;9.958;2023-02-13T08:20:40;22.37;;;15.33;;
13855;SDS011;6998;53.608;9.958;2023-02-13T08:23:10;20.30;;;15.17;;
13855;SDS011;6998;53.608;9.958;2023-02-13T08:25:37;22.30;;;16.07;;
13855;SDS011;6998;53.608;9.958;2023-02-13T08:28:05;20.67;;;16.10;;
13855;SDS011;6998;53.608;9.958;2023-02-13T08:30:32;22.37;;;16.57;;
13855;SDS011;6998;53.608;9.958;2023-02-13T08:32:59;16.53;;;14.13;;
13855;SDS011;6998;53.608;9.958;2023-02-13T08:35:26;18.77;;;14.80;;
13855;SDS011;6998;53.608;9.958;2023-02-13T08:37:57;19.87;;;15.50;;
13855;SDS011;6998;53.608;9.958;2023-02-13T08:40:27;20.47;;;15.40;;
13855;SDS011;6998;53.608;9.958;2023-02-13T08:42:58;21.90;;;17.70;;
13855;SDS011;6998;53.608;9.958;2023-02-13T08:45:26;20.80;;;16.90;;
13855;SDS011;6998;53.608;9.958;2023-02-13T08:47:54;20.63;;;16.47;;
13855;SDS011;6998;53.608;9.958;2023-02-13T08:50:22;18.80;;;14.80;;
13855;SDS011;6998;53.608;9.958;2023-02-13T08:52:49;15.90;;;13.93;;
13855;SDS011;6998;53.608;9.958;2023-02-13T08:55:17;18.50;;;15.47;;
13855;SDS011;6998;53.608;9.958;2023-02-13T08:57:45;19.57;;;15.10;;
13855;SDS011;6998;53.608;9.958;2023-02-13T09:00:13;21.40;;;16.70;;
13855;SDS011;6998;53.608;9.958;2023-02-13T09:02:40;18.03;;;15.07;;
13855;SDS011;6998;53.608;9.958;2023-02-13T09:05:07;19.43;;;15.40;;
13855;SDS011;6998;53.608;9.958;2023-02-13T09:07:34;20.13;;;17.17;;
13855;SDS011;6998;53.608;9.958;2023-02-13T09:10:01;21.83;;;17.42;;
13855;SDS011;6998;53.608;9.958;2023-02-13T09:12:29;21.23;;;16.57;;
13855;SDS011;6998;53.608;9.958;2023-02-13T09:14:56;19.47;;;16.37;;
13855;SDS011;6998;53.608;9.958;2023-02-13T09:17:23;20.60;;;16.50;;
13855;SDS011;6998;53.608;9.958;2023-02-13T09:19:50;20.17;;;16.77;;
13855;SDS011;6998;53.608;9.958;2023-02-13T09:22:17;18.60;;;15.60;;
13855;SDS011;6998;53.608;9.958;2023-02-13T09:24:44;18.70;;;15.07;;
13855;SDS011;6998;53.608;9.958;2023-02-13T09:27:11;18.88;;;15.00;;
13855;SDS011;6998;53.608;9.958;2023-02-13T09:29:40;19.80;;;16.40;;
13855;SDS011;6998;53.608;9.958;2023-02-13T09:32:09;18.63;;;15.80;;
13855;SDS011;6998;53.608;9.958;2023-02-13T09:34:38;18.20;;;15.67;;
13855;SDS011;6998;53.608;9.958;2023-02-13T09:37:11;18.60;;;15.43;;
13855;SDS011;6998;53.608;9.958;2023-02-13T09:39:38;16.97;;;14.53;;
13855;SDS011;6998;53.608;9.958;2023-02-13T09:42:05;16.77;;;14.97;;
13855;SDS011;6998;53.608;9.958;2023-02-13T09:44:46;17.67;;;14.50;;
13855;SDS011;6998;53.608;9.958;2023-02-13T09:47:16;18.00;;;13.87;;
13855;SDS011;6998;53.608;9.958;2023-02-13T09:49:49;17.77;;;14.90;;
13855;SDS011;6998;53.608;9.958;2023-02-13T09:52:19;18.17;;;15.23;;
13855;SDS011;6998;53.608;9.958;2023-02-13T09:54:46;18.13;;;14.67;;
13855;SDS011;6998;53.608;9.958;2023-02-13T09:57:14;17.33;;;15.43;;
13855;SDS011;6998;53.608;9.958;2023-02-13T09:59:51;16.67;;;14.63;;
13855;SDS011;6998;53.608;9.958;2023-02-13T10:02:28;17.43;;;14.60;;
13855;SDS011;6998;53.608;9.958;2023-02-13T10:05:09;18.25;;;14.32;;
13855;SDS011;6998;53.608;9.958;2023-02-13T10:07:54;18.07;;;14.77;;
13855;SDS011;6998;53.608;9.958;2023-02-13T10:10:44;15.70;;;13.50;;
13855;SDS011;6998;53.608;9.958;2023-02-13T10:13:21;16.90;;;14.57;;
13855;SDS011;6998;53.608;9.958;2023-02-13T10:16:00;17.92;;;13.65;;
13855;SDS011;6998;53.608;9.958;2023-02-13T10:18:38;16.63;;;14.10;;
13855;SDS011;6998;53.608;9.958;2023-02-13T10:21:10;17.02;;;14.13;;
13855;SDS011;6998;53.608;9.958;2023-02-13T10:23:40;15.15;;;13.45;;
13855;SDS011;6998;53.608;9.958;2023-02-13T10:26:11;16.40;;;14.27;;
13855;SDS011;6998;53.608;9.958;2023-02-13T10:28:45;17.58;;;14.20;;
13855;SDS011;6998;53.608;9.958;2023-02-13T10:31:39;15.88;;;14.18;;
13855;SDS011;6998;53.608;9.958;2023-02-13T10:34:10;16.48;;;13.45;;
13855;SDS011;6998;53.608;9.958;2023-02-13T10:36:41;15.73;;;13.70;;
13855;SDS011;6998;53.608;9.958;2023-02-13T10:39:17;17.57;;;14.30;;
13855;SDS011;6998;53.608;9.958;2023-02-13T10:41:49;15.70;;;13.77;;
13855;SDS011;6998;53.608;9.958;2023-02-13T10:47:29;14.35;;;12.63;;
13855;SDS011;6998;53.608;9.958;2023-02-13T10:50:09;15.15;;;11.77;;
13855;SDS011;6998;53.608;9.958;2023-02-13T10:52:49;15.52;;;13.40;;
13855;SDS011;6998;53.608;9.958;2023-02-13T10:55:30;18.23;;;14.30;;
13855;SDS011;6998;53.608;9.958;2023-02-13T10:58:17;18.15;;;13.82;;
13855;SDS011;6998;53.608;9.958;2023-02-13T11:00:50;16.63;;;14.25;;
13855;SDS011;6998;53.608;9.958;2023-02-13T11:03:22;19.40;;;14.82;;
13855;SDS011;6998;53.608;9.958;2023-02-13T11:05:50;17.88;;;14.88;;
13855;SDS011;6998;53.608;9.958;2023-02-13T11:08:20;18.70;;;14.25;;
13855;SDS011;6998;53.608;9.958;2023-02-13T11:10:48;16.33;;;13.95;;
13855;SDS011;6998;53.608;9.958;2023-02-13T11:13:17;17.88;;;14.48;;
13855;SDS011;6998;53.608;9.958;2023-02-13T11:22:34;20.38;;;14.80;;
13855;SDS011;6998;53.608;9.958;2023-02-13T11:25:16;19.35;;;14.90;;
13855;SDS011;6998;53.608;9.958;2023-02-13T11:27:46;20.50;;;16.02;;
13855;SDS011;6998;53.608;9.958;2023-02-13T11:30:28;21.02;;;15.75;;
13855;SDS011;6998;53.608;9.958;2023-02-13T11:32:58;19.80;;;16.33;;
13855;SDS011;6998;53.608;9.958;2023-02-13T11:35:27;21.25;;;16.15;;
13855;SDS011;6998;53.608;9.958;2023-02-13T11:47:07;24.23;;;17.17;;
13855;SDS011;6998;53.608;9.958;2023-02-13T11:49:34;21.85;;;16.50;;
13855;SDS011;6998;53.608;9.958;2023-02-13T12:05:26;21.20;;;17.23;;
13855;SDS011;6998;53.608;9.958;2023-02-13T12:07:54;27.50;;;18.65;;
13855;SDS011;6998;53.608;9.958;2023-02-13T12:10:41;25.00;;;19.20;;
13855;SDS011;6998;53.608;9.958;2023-02-13T12:13:12;24.38;;;18.85;;
13855;SDS011;6998;53.608;9.958;2023-02-13T12:15:47;21.35;;;18.13;;
13855;SDS011;6998;53.608;9.958;2023-02-13T12:18:25;23.55;;;18.77;;
13855;SDS011;6998;53.608;9.958;2023-02-13T12:21:10;21.88;;;17.90;;
13855;SDS011;6998;53.608;9.958;2023-02-13T12:23:52;23.45;;;18.65;;
13855;SDS011;6998;53.608;9.958;2023-02-13T12:26:28;26.42;;;20.73;;
13855;SDS011;6998;53.608;9.958;2023-02-13T12:29:07;27.65;;;20.48;;
13855;SDS011;6998;53.608;9.958;2023-02-13T12:31:54;25.48;;;19.15;;
13855;SDS011;6998;53.608;9.958;2023-02-13T12:34:45;28.35;;;21.45;;
13855;SDS011;6998;53.608;9.958;2023-02-13T12:40:25;29.45;;;20.50;;
13855;SDS011;6998;53.608;9.958;2023-02-13T12:46:19;25.02;;;19.50;;
13855;SDS011;6998;53.608;9.958;2023-02-13T12:48:55;23.20;;;19.17;;
13855;SDS011;6998;53.608;9.958;2023-02-13T12:51:34;25.58;;;20.27;;
13855;SDS011;6998;53.608;9.958;2023-02-13T12:54:16;25.63;;;20.05;;
13855;SDS011;6998;53.608;9.958;2023-02-13T12:56:58;29.25;;;19.92;;
13855;SDS011;6998;53.608;9.958;2023-02-13T12:59:37;24.02;;;19.73;;
13855;SDS011;6998;53.608;9.958;2023-02-13T13:02:35;25.70;;;19.58;;
13855;SDS011;6998;53.608;9.958;2023-02-13T13:05:26;27.85;;;19.70;;
13855;SDS011;6998;53.608;9.958;2023-02-13T13:08:10;29.42;;;21.23;;
13855;SDS011;6998;53.608;9.958;2023-02-13T13:11:02;25.77;;;19.48;;
13855;SDS011;6998;53.608;9.958;2023-02-13T13:13:42;24.48;;;19.15;;
13855;SDS011;6998;53.608;9.958;2023-02-13T13:20:21;23.90;;;19.07;;
13855;SDS011;6998;53.608;9.958;2023-02-13T13:23:46;27.95;;;20.60;;
13855;SDS011;6998;53.608;9.958;2023-02-13T13:26:21;24.92;;;19.70;;
13855;SDS011;6998;53.608;9.958;2023-02-13T13:28:58;27.88;;;19.75;;
13855;SDS011;6998;53.608;9.958;2023-02-13T13:31:33;26.73;;;19.38;;
13855;SDS011;6998;53.608;9.958;2023-02-13T13:34:05;26.00;;;18.88;;
13855;SDS011;6998;53.608;9.958;2023-02-13T13:36:40;25.27;;;19.17;;
13855;SDS011;6998;53.608;9.958;2023-02-13T13:39:16;27.60;;;19.52;;
13855;SDS011;6998;53.608;9.958;2023-02-13T13:41:53;25.25;;;19.88;;
13855;SDS011;6998;53.608;9.958;2023-02-13T13:44:40;27.83;;;19.23;;
13855;SDS011;6998;53.608;9.958;2023-02-13T13:47:46;27.40;;;19.87;;
13855;SDS011;6998;53.608;9.958;2023-02-13T13:50:25;27.65;;;20.30;;
13855;SDS011;6998;53.608;9.958;2023-02-13T13:53:06;25.85;;;18.88;;
13855;SDS011;6998;53.608;9.958;2023-02-13T13:58:32;24.10;;;19.15;;
13855;SDS011;6998;53.608;9.958;2023-02-13T14:04:01;30.00;;;20.65;;
13855;SDS011;6998;53.608;9.958;2023-02-13T14:09:48;27.80;;;20.10;;
13855;SDS011;6998;53.608;9.958;2023-02-13T14:25:20;27.60;;;20.85;;
13855;SDS011;6998;53.608;9.958;2023-02-13T14:27:54;29.58;;;21.75;;
13855;SDS011;6998;53.608;9.958;2023-02-13T14:30:29;30.15;;;22.17;;
13855;SDS011;6998;53.608;9.958;2023-02-13T14:32:58;30.17;;;21.77;;
13855;SDS011;6998;53.608;9.958;2023-02-13T14:38:54;27.05;;;21.02;;
13855;SDS011;6998;53.608;9.958;2023-02-13T14:44:45;28.25;;;21.05;;
13855;SDS011;6998;53.608;9.958;2023-02-13T14:47:17;33.25;;;23.27;;
13855;SDS011;6998;53.608;9.958;2023-02-13T14:49:47;27.95;;;20.92;;
13855;SDS011;6998;53.608;9.958;2023-02-13T14:52:17;27.77;;;21.75;;
13855;SDS011;6998;53.608;9.958;2023-02-13T14:54:51;28.47;;;21.33;;
13855;SDS011;6998;53.608;9.958;2023-02-13T15:04:20;26.10;;;19.63;;
13855;SDS011;6998;53.608;9.958;2023-02-13T15:12:28;27.93;;;20.50;;
13855;SDS011;6998;53.608;9.958;2023-02-13T15:14:58;27.93;;;21.00;;
13855;SDS011;6998;53.608;9.958;2023-02-13T15:17:27;29.47;;;20.73;;
13855;SDS011;6998;53.608;9.958;2023-02-13T15:20:06;29.00;;;20.63;;
13855;SDS011;6998;53.608;9.958;2023-02-13T15:22:45;30.13;;;21.33;;
13855;SDS011;6998;53.608;9.958;2023-02-13T15:25:19;28.50;;;20.73;;
13855;SDS011;6998;53.608;9.958;2023-02-13T15:27:50;30.45;;;22.45;;
13855;SDS011;6998;53.608;9.958;2023-02-13T15:30:20;32.90;;;22.57;;
13855;SDS011;6998;53.608;9.958;2023-02-13T15:33:26;30.30;;;21.30;;
13855;SDS011;6998;53.608;9.958;2023-02-13T15:36:04;29.13;;;21.60;;
13855;SDS011;6998;53.608;9.958;2023-02-13T15:38:38;28.75;;;19.88;;
13855;SDS011;6998;53.608;9.958;2023-02-13T15:41:08;30.67;;;20.80;;
13855;SDS011;6998;53.608;9.958;2023-02-13T15:43:40;32.25;;;22.48;;
13855;SDS011;6998;53.608;9.958;2023-02-13T15:46:30;30.42;;;22.23;;
13855;SDS011;6998;53.608;9.958;2023-02-13T15:52:35;28.38;;;20.10;;
13855;SDS011;6998;53.608;9.958;2023-02-13T15:55:13;26.88;;;20.02;;
13855;SDS011;6998;53.608;9.958;2023-02-13T15:57:49;30.38;;;22.48;;
13855;SDS011;6998;53.608;9.958;2023-02-13T16:00:30;33.50;;;24.13;;
13855;SDS011;6998;53.608;9.958;2023-02-13T16:06:59;26.77;;;20.57;;
13855;SDS011;6998;53.608;9.958;2023-02-13T16:30:04;23.80;;;18.00;;
13855;SDS011;6998;53.608;9.958;2023-02-13T16:36:38;28.37;;;21.80;;
13855;SDS011;6998;53.608;9.958;2023-02-13T16:49:17;27.40;;;20.60;;
13855;SDS011;6998;53.608;9.958;2023-02-13T16:51:48;27.33;;;21.93;;
13855;SDS011;6998;53.608;9.958;2023-02-13T16:57:03;25.97;;;19.43;;
13855;SDS011;6998;53.608;9.958;2023-02-13T16:59:48;22.20;;;18.07;;
13855;SDS011;6998;53.608;9.958;2023-02-13T17:02:32;26.17;;;19.00;;
13855;SDS011;6998;53.608;9.958;2023-02-13T17:05:13;27.10;;;20.40;;
13855;SDS011;6998;53.608;9.958;2023-02-13T17:07:44;26.80;;;19.97;;
13855;SDS011;6998;53.608;9.958;2023-02-13T17:10:17;24.37;;;18.90;;
13855;SDS011;6998;53.608;9.958;2023-02-13T17:12:47;28.60;;;20.80;;
13855;SDS011;6998;53.608;9.958;2023-02-13T17:15:15;29.27;;;21.30;;
13855;SDS011;6998;53.608;9.958;2023-02-13T17:17:46;28.87;;;20.70;;
13855;SDS011;6998;53.608;9.958;2023-02-13T17:20:24;26.50;;;20.03;;
13855;SDS011;6998;53.608;9.958;2023-02-13T17:23:00;27.07;;;20.13;;
13855;SDS011;6998;53.608;9.958;2023-02-13T17:25:30;25.67;;;20.10;;
13855;SDS011;6998;53.608;9.958;2023-02-13T17:28:27;26.07;;;19.70;;
13855;SDS011;6998;53.608;9.958;2023-02-13T18:07:28;25.40;;;18.30;;
13855;SDS011;6998;53.608;9.958;2023-02-13T18:13:16;26.33;;;18.83;;